ラロトンガ の空港の天気 - METARとTAF

ラロトンガ国際空港 ( NCRG / RAR ) - クック諸島 アバルア (ラロトンガ島)
飛行場実況気象(Metar)
観測時間11/26 22:00 CKT (11/27 08:00 UTC)
風向・風速- -
視程-
天気現象
-
気温-
湿度-
気圧-
METARNCRG 270800Z 270800</span </span <div class
過去の天気等 Google飛行場航空写真 Wunderground天気予報

過去48時間のMETAR

飛行場予報(TAF)
発表時間: 11/26 19:06 CKT (11/27 05:06 UTC)
予報対象時間: 26日20時 CKT ~ 27日20時 CKT
風向・風速東 3m/s
視程10km以上
全天の4割程度の雲 雲底高度 550m
全天の8割程度の雲 雲底高度 610m
TAF NCRG 270506Z 2706/2806 10005KT 9999 SCT018 BKN020